createdAt,value
2023-01-27T00:00:39.176Z,99.99
2023-01-27T00:01:38.858Z,99.99
2023-01-27T00:02:40.764Z,99.99
2023-01-27T00:03:38.952Z,99.99
2023-01-27T00:04:39.079Z,99.99
2023-01-27T00:05:39.058Z,99.99
2023-01-27T00:06:39.008Z,99.99
2023-01-27T00:07:38.991Z,99.99
2023-01-27T00:08:38.992Z,99.99
2023-01-27T00:09:38.940Z,99.99
2023-01-27T00:10:38.956Z,99.99
2023-01-27T00:11:38.906Z,99.99
2023-01-27T00:12:38.882Z,99.99
2023-01-27T00:13:38.859Z,99.99
2023-01-27T00:14:38.838Z,99.99
2023-01-27T00:15:38.879Z,99.99
2023-01-27T00:16:38.762Z,99.99
2023-01-27T00:17:38.992Z,99.99
2023-01-27T00:18:38.969Z,99.99
2023-01-27T00:19:38.959Z,99.99
2023-01-27T00:20:38.712Z,99.99
2023-01-27T00:21:38.943Z,99.99
2023-01-27T00:22:38.876Z,99.99
2023-01-27T00:23:38.893Z,99.99
2023-01-27T00:24:38.863Z,99.99
2023-01-27T00:25:38.566Z,99.99
2023-01-27T00:26:38.823Z,99.99
2023-01-27T00:27:38.885Z,99.99
2023-01-27T00:28:38.770Z,99.99
2023-01-27T00:29:38.740Z,99.99
2023-01-27T00:30:38.512Z,99.99
2023-01-27T00:31:38.909Z,99.99
2023-01-27T00:32:38.425Z,99.99
2023-01-27T00:33:38.662Z,99.99
2023-01-27T00:34:38.372Z,99.99
2023-01-27T00:35:38.613Z,99.99
2023-01-27T00:36:38.651Z,99.99
2023-01-27T00:37:38.599Z,99.99
2023-01-27T00:38:38.535Z,99.99
2023-01-27T00:39:38.524Z,99.99
2023-01-27T00:40:38.493Z,99.99
2023-01-27T00:41:38.512Z,99.99
2023-01-27T00:42:38.447Z,99.99
2023-01-27T00:43:38.180Z,99.99
2023-01-27T00:44:38.416Z,99.99
2023-01-27T00:45:38.125Z,99.99
2023-01-27T00:46:38.417Z,99.99
2023-01-27T00:47:38.361Z,99.99
2023-01-27T00:48:38.069Z,99.99
2023-01-27T00:49:38.301Z,99.99
2023-01-27T00:50:38.271Z,99.99
2023-01-27T00:51:38.286Z,99.99
2023-01-27T00:52:38.002Z,99.99
2023-01-27T00:53:38.232Z,99.99
2023-01-27T00:54:38.187Z,99.99
2023-01-27T00:55:37.941Z,99.99
2023-01-27T00:56:38.151Z,99.99
2023-01-27T00:57:38.157Z,99.99
2023-01-27T00:58:37.842Z,99.99
2023-01-27T00:59:38.090Z,99.99
2023-01-27T01:00:38.063Z,99.99
2023-01-27T01:01:38.199Z,99.99
2023-01-27T01:02:38.207Z,99.99
2023-01-27T01:03:37.997Z,99.99
2023-01-27T01:04:37.715Z,99.99
2023-01-27T01:05:37.955Z,99.99
2023-01-27T01:06:37.956Z,99.99
2023-01-27T01:07:37.653Z,99.99
2023-01-27T01:08:37.686Z,99.99
2023-01-27T01:09:37.887Z,99.99
2023-01-27T01:10:37.842Z,99.99
2023-01-27T01:11:37.818Z,99.99
2023-01-27T01:12:37.803Z,99.99
2023-01-27T01:13:37.793Z,99.99
2023-01-27T01:14:37.768Z,99.99
2023-01-27T01:15:37.794Z,99.99
2023-01-27T01:16:37.469Z,99.99
2023-01-27T01:17:37.686Z,99.99
2023-01-27T01:18:37.425Z,99.99
2023-01-27T01:19:37.646Z,99.99
2023-01-27T01:20:37.368Z,99.99
2023-01-27T01:21:39.057Z,99.99
2023-01-27T01:22:37.342Z,99.99
2023-01-27T01:23:37.304Z,99.99
2023-01-27T01:24:37.305Z,99.99
2023-01-27T01:25:37.537Z,99.99
2023-01-27T01:26:37.494Z,99.99
2023-01-27T01:27:37.484Z,99.99
2023-01-27T01:28:37.444Z,99.99
2023-01-27T01:29:37.423Z,99.99
2023-01-27T01:30:37.500Z,99.99
2023-01-27T01:31:37.542Z,99.99
2023-01-27T01:32:37.100Z,99.99
2023-01-27T01:33:37.343Z,99.99
2023-01-27T01:34:37.315Z,99.99
2023-01-27T01:35:37.312Z,99.99
2023-01-27T01:36:37.377Z,99.99
2023-01-27T01:37:36.997Z,99.99
2023-01-27T01:38:37.232Z,99.99
2023-01-27T01:39:36.949Z,99.99
2023-01-27T01:40:37.223Z,99.99
2023-01-27T01:41:37.207Z,99.99
2023-01-27T01:42:37.162Z,99.99
2023-01-27T01:43:37.121Z,99.99
2023-01-27T01:44:37.131Z,99.99
2023-01-27T01:45:36.840Z,99.99
2023-01-27T01:46:36.927Z,99.99
2023-01-27T01:47:36.776Z,99.99
2023-01-27T01:48:37.022Z,99.99
2023-01-27T01:49:36.988Z,99.99
2023-01-27T01:50:36.976Z,99.99
2023-01-27T01:51:36.943Z,99.99
2023-01-27T01:52:36.928Z,99.99
2023-01-27T01:53:36.647Z,99.99
2023-01-27T01:54:36.881Z,99.99
2023-01-27T01:55:36.874Z,99.99
2023-01-27T01:56:36.871Z,99.99
2023-01-27T01:57:36.863Z,99.99
2023-01-27T01:58:36.809Z,99.99
2023-01-27T01:59:36.765Z,99.99
2023-01-27T02:00:36.493Z,99.99
2023-01-27T02:01:36.728Z,99.99
2023-01-27T02:02:36.800Z,99.99
2023-01-27T02:03:37.138Z,99.99
2023-01-27T02:04:37.120Z,99.99
2023-01-27T02:05:37.106Z,99.99
2023-01-27T02:06:37.077Z,99.99
2023-01-27T02:07:37.062Z,99.99
2023-01-27T02:08:37.029Z,99.99
2023-01-27T02:09:36.749Z,99.99
2023-01-27T02:10:36.989Z,99.99
2023-01-27T02:11:36.981Z,99.99
2023-01-27T02:12:36.972Z,99.99
2023-01-27T02:13:36.950Z,99.99
2023-01-27T02:14:36.652Z,99.99
2023-01-27T02:15:36.884Z,99.99
2023-01-27T02:16:36.994Z,99.99
2023-01-27T02:17:36.837Z,99.99
2023-01-27T02:18:36.554Z,99.99
2023-01-27T02:19:36.797Z,99.99
2023-01-27T02:20:36.619Z,99.99
2023-01-27T02:21:36.761Z,99.99
2023-01-27T02:22:36.718Z,99.99
2023-01-27T02:23:36.464Z,99.99
2023-01-27T02:24:36.728Z,99.99
2023-01-27T02:25:36.667Z,99.99
2023-01-27T02:26:36.635Z,99.99
2023-01-27T02:27:36.619Z,99.99
2023-01-27T02:28:36.362Z,99.99
2023-01-27T02:29:36.602Z,99.99
2023-01-27T02:30:36.859Z,99.99
2023-01-27T02:31:36.616Z,99.99
2023-01-27T02:32:37.059Z,99.99
2023-01-27T02:33:36.239Z,99.99
2023-01-27T02:34:36.462Z,99.99
2023-01-27T02:35:36.473Z,99.99
2023-01-27T02:36:36.430Z,99.99
2023-01-27T02:37:36.147Z,99.99
2023-01-27T02:38:36.132Z,99.99
2023-01-27T02:39:36.371Z,99.99
2023-01-27T02:40:36.338Z,99.99
2023-01-27T02:41:36.335Z,99.99
2023-01-27T02:42:36.296Z,99.99
2023-01-27T02:43:36.027Z,99.99
2023-01-27T02:44:36.304Z,99.99
2023-01-27T02:45:36.258Z,99.99
2023-01-27T02:46:36.214Z,99.99
2023-01-27T02:47:36.206Z,99.99
2023-01-27T02:48:36.185Z,99.99
2023-01-27T02:49:36.163Z,99.99
2023-01-27T02:50:36.141Z,99.99
2023-01-27T02:51:35.861Z,99.99
2023-01-27T02:52:36.078Z,99.99
2023-01-27T02:53:36.055Z,99.99
2023-01-27T02:54:35.776Z,99.99
2023-01-27T02:55:36.001Z,99.99
2023-01-27T02:56:35.740Z,99.99
2023-01-27T02:57:35.953Z,99.99
2023-01-27T02:58:35.943Z,99.99
2023-01-27T02:59:35.919Z,99.99
2023-01-27T03:00:35.686Z,99.99
2023-01-27T03:01:36.025Z,99.99
2023-01-27T03:02:36.052Z,99.99
2023-01-27T03:03:35.870Z,99.99
2023-01-27T03:04:35.810Z,99.99
2023-01-27T03:05:35.803Z,99.99
2023-01-27T03:06:35.767Z,99.99
2023-01-27T03:07:35.747Z,99.99
2023-01-27T03:08:35.469Z,99.99
2023-01-27T03:09:35.698Z,99.99
2023-01-27T03:10:35.681Z,99.99
2023-01-27T03:11:35.681Z,99.99
2023-01-27T03:12:35.380Z,99.99
2023-01-27T03:13:35.608Z,99.99
2023-01-27T03:14:35.597Z,99.99
2023-01-27T03:15:35.402Z,99.99
2023-01-27T03:16:35.588Z,99.99
2023-01-27T03:17:35.571Z,99.99
2023-01-27T03:18:35.517Z,99.99
2023-01-27T03:19:35.483Z,99.99
2023-01-27T03:20:35.467Z,99.99
2023-01-27T03:21:35.439Z,99.99
2023-01-27T03:22:35.164Z,99.99
2023-01-27T03:23:35.394Z,99.99
2023-01-27T03:24:35.121Z,99.99
2023-01-27T03:25:35.352Z,99.99
2023-01-27T03:26:35.335Z,99.99
2023-01-27T03:27:35.331Z,99.99
2023-01-27T03:28:35.050Z,99.99
2023-01-27T03:29:36.001Z,99.99
2023-01-27T03:30:36.039Z,99.99
2023-01-27T03:31:36.162Z,99.99
2023-01-27T03:32:35.953Z,99.99
2023-01-27T03:50:00.807Z,99.99
2023-01-27T03:51:00.728Z,99.99
2023-01-27T03:52:00.485Z,99.99
2023-01-27T03:53:00.681Z,99.99
2023-01-27T03:54:00.669Z,99.99
2023-01-27T03:55:00.388Z,99.99
2023-01-27T03:56:00.624Z,99.99
2023-01-27T03:57:00.595Z,99.99
2023-01-27T03:58:00.313Z,99.99
2023-01-27T03:59:00.578Z,99.99
2023-01-27T04:00:00.533Z,99.99
2023-01-27T04:01:00.536Z,99.99
2023-01-27T04:02:00.480Z,99.99
2023-01-27T04:03:00.301Z,99.99
2023-01-27T04:04:00.451Z,99.99
2023-01-27T04:05:00.445Z,99.99
2023-01-27T04:06:00.456Z,99.99
2023-01-27T04:07:00.404Z,99.99
2023-01-27T04:08:00.366Z,99.99
2023-01-27T04:09:00.350Z,99.99
2023-01-27T04:10:00.054Z,99.99
2023-01-27T04:11:00.277Z,99.99
2023-01-27T04:12:00.378Z,99.99
2023-01-27T04:13:00.243Z,99.99
2023-01-27T04:14:00.223Z,99.99
2023-01-27T04:15:00.222Z,99.99
2023-01-27T04:16:00.339Z,99.99
2023-01-27T04:17:00.154Z,99.99
2023-01-27T04:18:00.138Z,99.99
2023-01-27T04:18:59.871Z,99.99
2023-01-27T04:20:00.125Z,99.99
2023-01-27T04:21:00.065Z,99.99
2023-01-27T04:22:00.559Z,99.99
2023-01-27T04:23:00.219Z,99.99
2023-01-27T04:24:00.302Z,99.99
2023-01-27T04:25:00.165Z,99.99
2023-01-27T04:26:00.147Z,99.99
2023-01-27T04:27:00.403Z,99.99
2023-01-27T04:28:00.400Z,99.99
2023-01-27T04:29:00.338Z,99.99
2023-01-27T04:30:00.108Z,99.99
2023-01-27T04:31:00.388Z,99.99
2023-01-27T04:32:00.555Z,99.99
2023-01-27T04:33:00.339Z,99.99
2023-01-27T04:34:00.259Z,99.99
2023-01-27T04:34:59.977Z,99.99
2023-01-27T04:35:59.939Z,99.93
2023-01-27T04:36:59.951Z,99.93
2023-01-27T04:38:00.200Z,99.99
2023-01-27T04:39:00.118Z,99.74
2023-01-27T04:40:00.123Z,99.84
2023-01-27T04:41:00.135Z,99.74
2023-01-27T04:42:00.081Z,99.65
2023-01-27T04:42:59.783Z,99.27
2023-01-27T04:44:00.015Z,99.74
2023-01-27T04:44:59.737Z,99.08
2023-01-27T04:46:00.252Z,99.27
2023-01-27T04:47:00.019Z,98.9
2023-01-27T04:48:00.058Z,98.9
2023-01-27T04:48:59.904Z,99.08
2023-01-27T04:49:59.630Z,99.08
2023-01-27T04:50:59.861Z,99.18
2023-01-27T04:51:59.609Z,98.99
2023-01-27T04:52:59.818Z,98.9
2023-01-27T04:53:59.874Z,99.18
2023-01-27T04:54:59.785Z,98.9
2023-01-27T04:55:59.753Z,98.99
2023-01-27T04:56:59.484Z,99.55
2023-01-27T04:57:59.726Z,99.65
2023-01-27T04:58:59.684Z,99.37
2023-01-27T04:59:59.410Z,99.27
2023-01-27T05:00:59.667Z,98.8
2023-01-27T05:01:59.846Z,99.18
2023-01-27T05:02:59.763Z,99.08
2023-01-27T05:03:59.328Z,98.71
2023-01-27T05:04:59.579Z,98.71
2023-01-27T05:05:59.273Z,98.52
2023-01-27T05:06:59.570Z,98.61
2023-01-27T05:07:59.495Z,98.04
2023-01-27T05:08:59.476Z,98.14
2023-01-27T05:09:59.496Z,98.04
2023-01-27T05:10:59.167Z,98.52
2023-01-27T05:11:59.157Z,98.23
2023-01-27T05:12:59.383Z,98.33
2023-01-27T05:13:59.109Z,98.61
2023-01-27T05:14:59.331Z,98.33
2023-01-27T05:15:59.083Z,98.23
2023-01-27T05:16:59.490Z,97.76
2023-01-27T05:17:59.314Z,97.95
2023-01-27T05:18:59.250Z,97.95
2023-01-27T05:19:59.418Z,97.38
2023-01-27T05:20:59.214Z,97.85
2023-01-27T05:21:59.187Z,97.76
2023-01-27T05:22:59.298Z,97.48
2023-01-27T05:23:59.193Z,97.95
2023-01-27T05:24:59.628Z,97.76
2023-01-27T05:25:59.449Z,98.14
2023-01-27T05:26:59.372Z,97.67
2023-01-27T05:27:59.090Z,97.67
2023-01-27T05:28:59.333Z,97.95
2023-01-27T05:29:59.301Z,97.67
2023-01-27T05:30:59.539Z,97.57
2023-01-27T05:31:59.330Z,97.95
2023-01-27T05:32:58.981Z,97.95
2023-01-27T05:33:58.962Z,97.67
2023-01-27T05:34:59.188Z,97.85
2023-01-27T05:35:59.169Z,98.23
2023-01-27T05:36:59.149Z,97.76
2023-01-27T05:37:59.131Z,97.85
2023-01-27T05:38:59.103Z,97.57
2023-01-27T05:39:59.128Z,97.48
2023-01-27T05:40:59.057Z,97.95
2023-01-27T05:41:59.090Z,96.91
2023-01-27T05:42:59.020Z,97.1
2023-01-27T05:43:59.009Z,96.72
2023-01-27T05:44:58.718Z,96.81
2023-01-27T05:45:58.699Z,96.91
2023-01-27T05:46:58.859Z,97.1
2023-01-27T05:47:58.961Z,97
2023-01-27T05:48:58.640Z,97.1
2023-01-27T05:49:58.871Z,96.72
2023-01-27T05:50:58.860Z,97.76
2023-01-27T05:51:58.839Z,96.72
2023-01-27T05:52:58.656Z,97.1
2023-01-27T05:53:58.787Z,96.72
2023-01-27T05:54:58.525Z,97.1
2023-01-27T05:55:58.837Z,97
2023-01-27T05:56:58.896Z,97.1
2023-01-27T05:57:58.749Z,97
2023-01-27T05:58:58.436Z,97.29
2023-01-27T05:59:58.398Z,97
2023-01-27T06:00:58.628Z,96.53
2023-01-27T06:01:58.439Z,96.34
2023-01-27T06:02:58.459Z,96.49
2023-01-27T06:03:58.323Z,96.53
2023-01-27T06:04:58.537Z,96.53
2023-01-27T06:05:58.311Z,96.53
2023-01-27T06:06:58.516Z,96.44
2023-01-27T06:08:00.111Z,96.68
2023-01-27T06:08:58.471Z,96.68
2023-01-27T06:09:58.447Z,96.58
2023-01-27T06:10:58.417Z,96.53
2023-01-27T06:11:58.157Z,96.68
2023-01-27T06:12:58.370Z,97.19
2023-01-27T06:13:58.420Z,97
2023-01-27T06:14:58.335Z,96.91
2023-01-27T06:15:58.340Z,97.1
2023-01-27T06:16:58.286Z,97.95
2023-01-27T06:17:58.263Z,97.19
2023-01-27T06:18:58.269Z,97.19
2023-01-27T06:19:58.228Z,97.85
2023-01-27T06:20:57.942Z,97.76
2023-01-27T06:21:58.185Z,96.72
2023-01-27T06:22:58.153Z,96.81
2023-01-27T06:23:58.476Z,96.72
2023-01-27T06:24:58.157Z,96.91
2023-01-27T06:25:58.091Z,97
2023-01-27T06:26:58.078Z,96.91
2023-01-27T06:27:58.055Z,96.91
2023-01-27T06:28:58.104Z,97.85
2023-01-27T06:29:58.065Z,96.91
2023-01-27T06:30:57.931Z,96.91
2023-01-27T06:31:57.796Z,97.19
2023-01-27T06:32:57.940Z,97
2023-01-27T06:33:57.669Z,96.91
2023-01-27T06:34:57.902Z,97.29
2023-01-27T06:35:57.880Z,97.29
2023-01-27T06:36:57.862Z,97
2023-01-27T06:37:57.829Z,97.29
2023-01-27T06:38:57.555Z,97.57
2023-01-27T06:39:57.534Z,97.57
2023-01-27T06:40:57.765Z,97.57
2023-01-27T06:41:57.916Z,97.29
2023-01-27T06:42:57.722Z,97.48
2023-01-27T06:43:57.484Z,97.38
2023-01-27T06:44:57.464Z,97.85
2023-01-27T06:45:57.879Z,97.76
2023-01-27T06:46:57.390Z,97.57
2023-01-27T06:47:57.660Z,97.48
2023-01-27T06:48:57.337Z,97.85
2023-01-27T06:49:57.579Z,98.04
2023-01-27T06:50:57.335Z,97.85
2023-01-27T06:51:57.378Z,97.67
2023-01-27T06:52:57.503Z,97.48
2023-01-27T06:53:57.484Z,97.76
2023-01-27T06:54:57.471Z,97.67
2023-01-27T06:55:57.440Z,97.38
2023-01-27T06:56:57.164Z,97.57
2023-01-27T06:57:57.415Z,97.38
2023-01-27T06:58:57.377Z,97.48
2023-01-27T06:59:57.349Z,97.67
2023-01-27T07:00:57.372Z,97.76
2023-01-27T07:01:57.353Z,97.48
2023-01-27T07:02:57.492Z,97.57
2023-01-27T07:03:57.012Z,97.85
2023-01-27T07:04:57.244Z,97.1
2023-01-27T07:05:57.232Z,96.91
2023-01-27T07:06:56.947Z,96.81
2023-01-27T07:07:57.175Z,97.19
2023-01-27T07:08:57.801Z,96.91
2023-01-27T07:09:56.875Z,97
2023-01-27T07:10:57.121Z,97
2023-01-27T07:11:57.088Z,96.91
2023-01-27T07:12:57.071Z,97
2023-01-27T07:13:57.045Z,97
2023-01-27T07:14:56.770Z,96.34
2023-01-27T07:15:57.164Z,96.63
2023-01-27T07:16:56.987Z,97.1
2023-01-27T07:17:57.011Z,96.91
2023-01-27T07:18:56.947Z,96.81
2023-01-27T07:19:56.917Z,97.1
2023-01-27T07:20:56.897Z,96.72
2023-01-27T07:21:56.627Z,97.1
2023-01-27T07:22:56.595Z,96.72
2023-01-27T07:23:56.934Z,97.76
2023-01-27T07:24:56.803Z,97.38
2023-01-27T07:25:57.301Z,97.57
2023-01-27T07:26:56.596Z,97.67
2023-01-27T07:27:56.493Z,97.19
2023-01-27T07:28:56.728Z,97.38
2023-01-27T07:29:56.466Z,98.23
2023-01-27T07:30:56.741Z,97.67
2023-01-27T07:31:57.498Z,97.29
2023-01-27T07:32:57.560Z,97.57
2023-01-27T07:33:57.614Z,97.38
2023-01-27T07:34:57.517Z,97.57
2023-01-27T07:35:57.508Z,97.67
2023-01-27T07:36:57.214Z,97.48
2023-01-27T07:37:57.449Z,97.38
2023-01-27T07:38:57.449Z,97.67
2023-01-27T07:39:57.181Z,96.91
2023-01-27T07:40:57.374Z,96.91
2023-01-27T07:41:57.119Z,97.38
2023-01-27T07:42:57.357Z,97.57
2023-01-27T07:43:57.311Z,97.67
2023-01-27T07:44:57.295Z,96.91
2023-01-27T07:45:57.531Z,97.67
2023-01-27T07:46:57.246Z,97.67
2023-01-27T07:47:57.239Z,97.85
2023-01-27T07:48:57.204Z,98.14
2023-01-27T07:49:57.240Z,97.95
2023-01-27T07:50:57.169Z,97.48
2023-01-27T07:51:57.137Z,97.67
2023-01-27T07:52:57.124Z,98.52
2023-01-27T07:53:57.113Z,98.23
2023-01-27T07:54:57.077Z,98.52
2023-01-27T07:55:56.802Z,98.14
2023-01-27T07:56:56.775Z,97.76
2023-01-27T07:57:57.899Z,97.57
2023-01-27T07:58:57.873Z,97.57
2023-01-27T07:59:57.873Z,97.67
2023-01-27T08:00:57.925Z,97.85
2023-01-27T08:01:57.794Z,97.95
2023-01-27T08:02:57.997Z,98.33
2023-01-27T08:03:57.778Z,98.61
2023-01-27T08:04:57.736Z,98.61
2023-01-27T08:05:57.790Z,98.71
2023-01-27T08:06:57.725Z,98.71
2023-01-27T08:08:00.674Z,98.42
2023-01-27T08:08:57.647Z,98.42
2023-01-27T08:09:57.365Z,98.14
2023-01-27T08:10:57.604Z,98.33
2023-01-27T08:11:57.334Z,98.61
2023-01-27T08:12:57.438Z,98.52
2023-01-27T08:13:57.542Z,98.71
2023-01-27T08:14:57.537Z,99.18
2023-01-27T08:15:57.507Z,99.27
2023-01-27T08:16:57.500Z,99.27
2023-01-27T08:17:57.194Z,99.84
2023-01-27T08:18:57.166Z,99.74
2023-01-27T08:19:57.397Z,99.46
2023-01-27T08:20:57.387Z,99.65
2023-01-27T08:21:57.425Z,99.93
2023-01-27T08:22:57.088Z,99.93
2023-01-27T08:23:57.132Z,99.93
2023-01-27T08:24:57.320Z,99.99
2023-01-27T08:25:57.393Z,99.46
2023-01-27T08:26:57.282Z,99.99
2023-01-27T08:27:57.255Z,99.99
2023-01-27T08:28:57.248Z,99.93
2023-01-27T08:29:57.191Z,99.99
2023-01-27T08:30:56.961Z,99.84
2023-01-27T08:31:57.223Z,99.55
2023-01-27T08:32:57.119Z,99.99
2023-01-27T08:33:57.108Z,99.84
2023-01-27T08:34:56.826Z,99.74
2023-01-27T08:35:56.804Z,99.99
2023-01-27T08:36:57.032Z,99.99
2023-01-27T08:37:57.061Z,99.99
2023-01-27T08:38:57.015Z,99.99
2023-01-27T08:39:56.969Z,99.99
2023-01-27T08:40:56.953Z,99.99
2023-01-27T08:41:56.684Z,99.99
2023-01-27T08:42:56.904Z,99.99
2023-01-27T08:43:56.892Z,99.99
2023-01-27T08:44:56.867Z,99.99
2023-01-27T08:45:56.886Z,99.99
2023-01-27T08:46:56.820Z,99.99
2023-01-27T08:47:56.538Z,99.99
2023-01-27T08:48:56.785Z,99.99
2023-01-27T08:49:56.758Z,99.99
2023-01-27T08:50:56.731Z,99.99
2023-01-27T08:51:56.709Z,99.99
2023-01-27T08:52:56.443Z,99.99
2023-01-27T08:53:56.725Z,99.99
2023-01-27T08:54:56.650Z,99.99
2023-01-27T08:55:56.789Z,99.99
2023-01-27T08:56:56.344Z,99.99
2023-01-27T08:57:56.330Z,99.99
2023-01-27T08:58:56.551Z,99.99
2023-01-27T08:59:56.548Z,99.99
2023-01-27T09:00:56.258Z,99.99
2023-01-27T09:01:56.492Z,99.99
2023-01-27T09:02:56.211Z,99.99
2023-01-27T09:03:56.447Z,99.99
2023-01-27T09:04:56.579Z,99.99
2023-01-27T09:05:56.410Z,99.99
2023-01-27T09:06:56.382Z,99.99
2023-01-27T09:07:56.367Z,99.99
2023-01-27T09:08:56.089Z,99.99
2023-01-27T09:10:15.054Z,99.99
2023-01-27T09:10:56.298Z,99.99
2023-01-27T09:11:56.272Z,99.99
2023-01-27T09:12:56.001Z,99.99
2023-01-27T09:13:56.229Z,99.99
2023-01-27T09:14:55.947Z,99.99
2023-01-27T09:15:56.339Z,99.99
2023-01-27T09:16:55.908Z,99.99
2023-01-27T09:17:56.154Z,99.99
2023-01-27T09:18:56.130Z,99.99
2023-01-27T09:19:56.100Z,99.99
2023-01-27T09:20:56.104Z,99.99
2023-01-27T09:21:56.066Z,99.99
2023-01-27T09:22:56.030Z,99.99
2023-01-27T09:23:56.109Z,99.99
2023-01-27T09:24:55.993Z,99.99
2023-01-27T09:25:56.047Z,99.99
2023-01-27T09:26:55.946Z,99.99
2023-01-27T09:27:55.679Z,99.99
2023-01-27T09:28:55.649Z,99.99
2023-01-27T09:29:55.631Z,99.99
2023-01-27T09:30:55.684Z,99.99
2023-01-27T09:31:55.864Z,99.99
2023-01-27T09:32:55.829Z,99.99
2023-01-27T09:33:55.539Z,99.99
2023-01-27T09:34:55.772Z,99.99
2023-01-27T09:35:55.503Z,99.99
2023-01-27T09:36:55.476Z,99.99
2023-01-27T09:37:55.717Z,99.99
2023-01-27T09:38:55.700Z,99.99
2023-01-27T09:39:55.413Z,99.99
2023-01-27T09:40:55.651Z,99.99
2023-01-27T09:41:55.751Z,99.99
2023-01-27T09:42:55.604Z,99.99
2023-01-27T09:43:55.322Z,99.99
2023-01-27T09:44:55.562Z,99.99
2023-01-27T09:45:55.710Z,99.99
2023-01-27T09:46:55.514Z,99.99
2023-01-27T09:47:55.239Z,99.99
2023-01-27T09:48:55.476Z,99.99
2023-01-27T09:49:55.473Z,99.99
2023-01-27T09:50:55.203Z,99.99
2023-01-27T09:51:55.410Z,99.99
2023-01-27T09:52:55.415Z,99.99
2023-01-27T09:53:55.373Z,99.99
2023-01-27T09:54:55.109Z,99.99
2023-01-27T09:55:55.319Z,99.99
2023-01-27T09:56:55.299Z,99.99
2023-01-27T09:57:55.328Z,99.99
2023-01-27T09:58:55.008Z,99.99
2023-01-27T09:59:55.236Z,99.99
2023-01-27T10:00:55.212Z,99.99
2023-01-27T10:01:55.260Z,99.99
2023-01-27T10:02:55.179Z,99.99
2023-01-27T10:03:55.149Z,99.99
2023-01-27T10:04:55.192Z,99.99
2023-01-27T10:05:55.119Z,99.99
2023-01-27T10:06:55.106Z,99.99
2023-01-27T10:07:55.072Z,99.99
2023-01-27T10:08:55.064Z,99.99
2023-01-27T10:09:55.029Z,99.99
2023-01-27T10:10:54.996Z,99.99
2023-01-27T10:11:54.978Z,99.99
2023-01-27T10:12:54.963Z,99.99
2023-01-27T10:13:55.181Z,99.99
2023-01-27T10:14:54.671Z,99.99
2023-01-27T10:15:54.969Z,99.99
2023-01-27T10:16:54.875Z,99.99
2023-01-27T10:17:54.866Z,99.99
2023-01-27T10:18:54.582Z,99.99
2023-01-27T10:19:54.858Z,99.99
2023-01-27T10:20:54.530Z,99.99
2023-01-27T10:21:54.508Z,99.99
2023-01-27T10:22:54.748Z,99.99
2023-01-27T10:23:54.777Z,99.99
2023-01-27T10:24:54.445Z,99.99
2023-01-27T10:25:54.677Z,99.99
2023-01-27T10:26:54.676Z,99.99
2023-01-27T10:27:54.638Z,99.99
2023-01-27T10:28:54.620Z,99.99
2023-01-27T10:29:54.679Z,99.99
2023-01-27T10:30:54.651Z,99.99
2023-01-27T10:31:54.680Z,99.99
2023-01-27T10:32:54.539Z,99.99
2023-01-27T10:33:54.258Z,99.99
2023-01-27T10:34:54.487Z,99.99
2023-01-27T10:35:54.487Z,99.99
2023-01-27T10:36:54.456Z,99.99
2023-01-27T10:37:54.167Z,99.99
2023-01-27T10:38:54.408Z,99.99
2023-01-27T10:39:54.133Z,99.99
2023-01-27T10:40:54.362Z,99.99
2023-01-27T10:41:54.364Z,99.99
2023-01-27T10:42:54.096Z,99.99
2023-01-27T10:43:54.297Z,99.99
2023-01-27T10:44:54.287Z,99.99
2023-01-27T10:45:54.537Z,99.99
2023-01-27T10:46:54.128Z,99.99
2023-01-27T10:47:54.212Z,99.99
2023-01-27T10:48:54.187Z,99.99
2023-01-27T10:49:54.179Z,99.99
2023-01-27T10:50:54.144Z,99.99
2023-01-27T10:51:54.140Z,99.99
2023-01-27T10:52:53.844Z,99.99
2023-01-27T10:53:54.097Z,99.99
2023-01-27T10:54:54.062Z,99.99
2023-01-27T10:55:53.785Z,99.99
2023-01-27T10:56:54.025Z,99.99
2023-01-27T10:57:54.027Z,99.99
2023-01-27T10:58:53.980Z,99.99
2023-01-27T11:00:46.415Z,99.99
2023-01-27T11:01:33.645Z,99.99
2023-01-27T11:02:32.967Z,99.99
2023-01-27T11:03:32.701Z,99.99
2023-01-27T11:04:33.264Z,99.99
2023-01-27T11:05:32.644Z,99.99
2023-01-27T11:06:32.885Z,99.99
2023-01-27T11:07:32.851Z,99.99
2023-01-27T11:08:32.834Z,99.99
2023-01-27T11:09:32.818Z,99.99
2023-01-27T11:10:32.533Z,99.99
2023-01-27T11:11:32.767Z,99.99
2023-01-27T11:12:32.764Z,99.99
2023-01-27T11:13:32.730Z,99.99
2023-01-27T11:14:32.549Z,99.99
2023-01-27T11:15:32.432Z,99.99
2023-01-27T11:16:32.537Z,99.99
2023-01-27T11:17:32.714Z,99.99
2023-01-27T11:18:32.680Z,99.99
2023-01-27T11:19:32.600Z,99.99
2023-01-27T11:20:32.590Z,99.99
2023-01-27T11:21:32.311Z,99.99
2023-01-27T11:22:32.559Z,99.99
2023-01-27T11:23:32.261Z,99.99
2023-01-27T11:24:32.504Z,99.99
2023-01-27T11:25:32.232Z,99.99
2023-01-27T11:26:32.467Z,99.99
2023-01-27T11:27:32.185Z,99.99
2023-01-27T11:28:32.422Z,99.99
2023-01-27T11:29:32.421Z,99.99
2023-01-27T11:30:32.535Z,99.99
2023-01-27T11:31:32.778Z,99.99
2023-01-27T11:32:32.339Z,99.99
2023-01-27T11:33:32.367Z,99.99
2023-01-27T11:34:32.291Z,99.99
2023-01-27T11:35:32.017Z,99.99
2023-01-27T11:36:32.244Z,99.99
2023-01-27T11:37:32.229Z,99.99
2023-01-27T11:38:32.215Z,99.99
2023-01-27T11:39:32.186Z,99.99
2023-01-27T11:40:32.164Z,99.99
2023-01-27T11:41:32.143Z,99.99
2023-01-27T11:42:31.877Z,99.99
2023-01-27T11:43:32.110Z,99.99
2023-01-27T11:44:32.088Z,99.99
2023-01-27T11:45:32.194Z,99.99
2023-01-27T11:46:31.780Z,99.99
2023-01-27T11:47:32.033Z,99.99
2023-01-27T11:48:31.995Z,99.99
2023-01-27T11:49:32.032Z,99.99
2023-01-27T11:50:31.964Z,99.99
2023-01-27T11:51:31.929Z,99.99
2023-01-27T11:52:31.910Z,99.99
2023-01-27T11:53:31.633Z,99.99
2023-01-27T11:54:31.863Z,99.99
2023-01-27T11:55:31.854Z,99.99
2023-01-27T11:56:31.823Z,99.99
2023-01-27T11:57:31.821Z,99.99
2023-01-27T11:58:31.531Z,99.99
2023-01-27T11:59:32.704Z,99.99
2023-01-27T12:00:32.679Z,99.99
2023-01-27T12:01:32.409Z,99.99
2023-01-27T12:02:32.640Z,99.99
2023-01-27T12:03:32.440Z,99.99
2023-01-27T12:04:32.687Z,99.99
2023-01-27T12:05:32.631Z,99.99
2023-01-27T12:06:32.555Z,99.99
2023-01-27T12:07:32.284Z,99.99
2023-01-27T12:08:32.259Z,99.99
2023-01-27T12:09:32.495Z,99.99
2023-01-27T12:10:32.467Z,99.99
2023-01-27T12:11:32.469Z,99.99
2023-01-27T12:12:32.435Z,99.99
2023-01-27T12:13:32.154Z,99.99
2023-01-27T12:14:32.397Z,99.99
2023-01-27T12:15:32.110Z,99.99
2023-01-27T12:16:32.346Z,99.99
2023-01-27T12:17:32.329Z,99.99
2023-01-27T12:18:32.051Z,99.99
2023-01-27T12:19:32.048Z,99.99
2023-01-27T12:20:32.262Z,99.99
2023-01-27T12:21:32.298Z,99.99
2023-01-27T12:22:32.223Z,99.99
2023-01-27T12:23:31.952Z,99.99
2023-01-27T12:24:32.364Z,99.99
2023-01-27T12:25:32.178Z,99.99
2023-01-27T12:26:32.163Z,99.99
2023-01-27T12:27:32.133Z,99.99
2023-01-27T12:28:32.117Z,99.99
2023-01-27T12:29:31.846Z,99.99
2023-01-27T12:30:32.113Z,99.99
2023-01-27T12:31:32.384Z,99.99
2023-01-27T12:32:32.027Z,99.99
2023-01-27T12:33:32.002Z,99.99
2023-01-27T12:34:31.781Z,99.99
2023-01-27T12:35:31.960Z,99.99
2023-01-27T12:36:32.840Z,99.99
2023-01-27T12:37:31.989Z,99.99
2023-01-27T12:38:31.915Z,99.99
2023-01-27T12:39:31.631Z,99.99
2023-01-27T12:40:31.637Z,99.99
2023-01-27T12:41:31.578Z,99.99
2023-01-27T12:42:31.574Z,99.99
2023-01-27T12:43:31.794Z,99.99
2023-01-27T12:44:31.771Z,99.99
2023-01-27T12:45:31.508Z,99.99
2023-01-27T12:46:31.813Z,99.99
2023-01-27T12:47:31.763Z,99.99
2023-01-27T12:48:31.717Z,99.99
2023-01-27T12:49:31.668Z,99.99
2023-01-27T12:50:31.682Z,99.99
2023-01-27T12:51:31.629Z,99.99
2023-01-27T12:52:31.613Z,99.99
2023-01-27T12:53:31.637Z,99.99
2023-01-27T12:54:31.325Z,99.99
2023-01-27T12:55:31.588Z,99.99
2023-01-27T12:56:31.532Z,99.99
2023-01-27T12:57:31.506Z,99.99
2023-01-27T12:58:31.554Z,99.99
2023-01-27T12:59:31.473Z,99.99
2023-01-27T13:00:31.853Z,99.99
2023-01-27T13:01:31.914Z,99.99
2023-01-27T13:02:31.891Z,99.99
2023-01-27T13:03:32.055Z,99.99
2023-01-27T13:04:31.604Z,99.99
2023-01-27T13:05:31.824Z,99.99
2023-01-27T13:06:31.829Z,99.99
2023-01-27T13:07:31.782Z,99.99
2023-01-27T13:08:31.805Z,99.99
2023-01-27T13:09:31.794Z,99.99
2023-01-27T13:10:31.728Z,99.99
2023-01-27T13:11:31.715Z,99.99